createdAt,value
2018-09-25T00:02:20.479Z,8.00
2018-09-25T00:04:53.748Z,8.00
2018-09-25T00:07:27.067Z,8.00
2018-09-25T00:10:00.312Z,8.00
2018-09-25T00:12:33.561Z,8.00
2018-09-25T00:15:06.856Z,8.00
2018-09-25T00:17:40.218Z,7.90
2018-09-25T00:20:13.558Z,7.90
2018-09-25T00:22:46.668Z,7.80
2018-09-25T00:25:19.960Z,7.80
2018-09-25T00:27:53.161Z,7.80
2018-09-25T00:30:26.465Z,7.80
2018-09-25T00:32:59.789Z,7.80
2018-09-25T00:35:33.037Z,7.80
2018-09-25T00:38:06.325Z,7.80
2018-09-25T00:40:39.547Z,7.80
2018-09-25T00:43:12.769Z,7.70
2018-09-25T00:45:45.951Z,7.70
2018-09-25T00:48:19.204Z,7.70
2018-09-25T00:50:52.520Z,7.60
2018-09-25T00:53:25.695Z,7.60
2018-09-25T00:55:59.025Z,7.60
2018-09-25T00:58:32.323Z,7.60
2018-09-25T01:01:05.665Z,7.60
2018-09-25T01:03:38.832Z,7.50
2018-09-25T01:06:12.322Z,7.50
2018-09-25T01:08:45.393Z,7.50
2018-09-25T01:11:18.712Z,7.50
2018-09-25T01:13:51.966Z,7.50
2018-09-25T01:16:25.063Z,7.40
2018-09-25T01:18:58.274Z,7.40
2018-09-25T01:21:31.559Z,7.40
2018-09-25T01:24:04.784Z,7.40
2018-09-25T01:26:38.102Z,7.40
2018-09-25T01:29:12.214Z,7.40
2018-09-25T01:31:45.479Z,7.40
2018-09-25T01:34:18.764Z,7.40
2018-09-25T01:36:51.978Z,7.40
2018-09-25T01:39:25.010Z,7.40
2018-09-25T01:41:58.287Z,7.40
2018-09-25T01:44:31.526Z,7.50
2018-09-25T01:47:04.762Z,7.50
2018-09-25T01:49:37.925Z,7.50
2018-09-25T01:52:11.600Z,7.60
2018-09-25T01:54:44.888Z,7.60
2018-09-25T01:57:18.217Z,7.60
2018-09-25T01:59:51.441Z,7.50
2018-09-25T02:02:24.748Z,7.50
2018-09-25T02:04:57.891Z,7.50
2018-09-25T02:07:31.106Z,7.40
2018-09-25T02:10:04.326Z,7.30
2018-09-25T02:12:37.597Z,7.30
2018-09-25T02:15:10.871Z,7.30
2018-09-25T02:17:44.052Z,7.20
2018-09-25T02:20:17.195Z,7.20
2018-09-25T02:22:50.326Z,7.20
2018-09-25T02:25:23.507Z,7.20
2018-09-25T02:27:56.671Z,7.10
2018-09-25T02:30:29.890Z,7.10
2018-09-25T02:33:03.021Z,7.10
2018-09-25T02:35:36.252Z,7.00
2018-09-25T02:38:09.403Z,7.00
2018-09-25T02:40:42.641Z,7.00
2018-09-25T02:43:15.789Z,7.00
2018-09-25T02:45:48.964Z,7.00
2018-09-25T02:48:22.169Z,7.00
2018-09-25T02:50:55.353Z,7.00
2018-09-25T02:53:28.506Z,7.00
2018-09-25T02:56:01.678Z,7.00
2018-09-25T02:58:34.906Z,7.00
2018-09-25T03:01:07.990Z,6.90
2018-09-25T03:03:41.086Z,6.90
2018-09-25T03:06:14.228Z,6.80
2018-09-25T03:08:47.445Z,6.80
2018-09-25T03:11:20.619Z,6.80
2018-09-25T03:13:53.848Z,6.80
2018-09-25T03:16:27.041Z,6.90
2018-09-25T03:19:00.263Z,6.90
2018-09-25T03:21:33.392Z,6.90
2018-09-25T03:24:06.592Z,6.90
2018-09-25T03:26:39.832Z,6.80
2018-09-25T03:29:13.015Z,6.80
2018-09-25T03:31:45.978Z,6.80
2018-09-25T03:34:19.136Z,6.80
2018-09-25T03:36:52.353Z,6.80
2018-09-25T03:39:25.512Z,6.90
2018-09-25T03:41:58.652Z,6.90
2018-09-25T03:44:31.747Z,6.80
2018-09-25T03:47:04.941Z,6.90
2018-09-25T03:49:38.226Z,6.90
2018-09-25T03:52:11.330Z,6.90
2018-09-25T03:54:44.532Z,6.90
2018-09-25T03:57:17.700Z,6.80
2018-09-25T03:59:50.943Z,6.80
2018-09-25T04:02:24.047Z,6.70
2018-09-25T04:04:57.172Z,6.70
2018-09-25T04:07:30.292Z,6.60
2018-09-25T04:10:03.540Z,6.70
2018-09-25T04:12:36.658Z,6.70
2018-09-25T04:15:09.878Z,6.70
2018-09-25T04:17:42.924Z,6.70
2018-09-25T04:20:16.102Z,6.70
2018-09-25T04:22:49.288Z,6.70
2018-09-25T04:25:22.522Z,6.80
2018-09-25T04:27:55.666Z,6.80
2018-09-25T04:30:28.930Z,6.80
2018-09-25T04:33:01.984Z,7.00
2018-09-25T04:35:35.310Z,7.90
2018-09-25T04:38:08.372Z,8.80
2018-09-25T04:40:41.530Z,9.40
2018-09-25T04:43:14.698Z,9.70
2018-09-25T04:45:47.927Z,10.10
2018-09-25T04:48:21.146Z,10.40
2018-09-25T04:50:54.304Z,10.70
2018-09-25T04:53:27.510Z,10.90
2018-09-25T04:56:00.716Z,11.10
2018-09-25T04:58:33.843Z,11.10
2018-09-25T05:01:07.128Z,11.10
2018-09-25T05:03:40.248Z,11.10
2018-09-25T05:06:13.486Z,10.80
2018-09-25T05:08:46.696Z,10.60
2018-09-25T05:11:19.858Z,10.90
2018-09-25T05:13:53.051Z,10.80
2018-09-25T05:16:26.284Z,10.90
2018-09-25T05:18:59.481Z,10.70
2018-09-25T05:21:32.689Z,10.10
2018-09-25T05:24:05.973Z,9.70
2018-09-25T05:26:39.161Z,9.30
2018-09-25T05:29:12.317Z,9.00
2018-09-25T05:31:45.574Z,8.80
2018-09-25T05:34:18.784Z,8.70
2018-09-25T05:36:51.969Z,8.60
2018-09-25T05:39:25.021Z,8.60
2018-09-25T05:41:58.292Z,8.60
2018-09-25T05:44:31.370Z,8.60
2018-09-25T05:47:04.615Z,8.60
2018-09-25T05:49:37.888Z,8.60
2018-09-25T05:52:11.047Z,8.60
2018-09-25T05:54:44.301Z,8.70
2018-09-25T05:57:17.581Z,8.80
2018-09-25T05:59:50.815Z,8.80
2018-09-25T06:02:24.051Z,8.90
2018-09-25T06:04:57.257Z,8.90
2018-09-25T06:07:37.230Z,8.90
2018-09-25T06:10:10.597Z,8.90
2018-09-25T06:12:43.965Z,8.90
2018-09-25T06:17:43.187Z,9.00
2018-09-25T06:20:16.351Z,9.00
2018-09-25T06:22:49.664Z,9.10
2018-09-25T06:25:22.755Z,9.00
2018-09-25T06:27:55.947Z,9.10
2018-09-25T06:30:29.112Z,9.00
2018-09-25T06:33:02.418Z,9.00
2018-09-25T06:35:35.717Z,9.10
2018-09-25T06:38:09.029Z,9.00
2018-09-25T06:40:42.245Z,9.00
2018-09-25T06:43:15.560Z,9.10
2018-09-25T06:45:48.740Z,9.20
2018-09-25T06:48:22.043Z,9.70
2018-09-25T06:50:55.306Z,10.10
2018-09-25T06:53:28.622Z,10.70
2018-09-25T06:56:01.721Z,11.00
2018-09-25T06:58:34.964Z,11.10
2018-09-25T07:01:08.263Z,11.30
2018-09-25T07:03:41.532Z,11.60
2018-09-25T07:06:14.728Z,12.00
2018-09-25T07:08:48.060Z,12.00
2018-09-25T07:11:21.462Z,12.00
2018-09-25T07:13:54.616Z,11.80
2018-09-25T07:16:27.894Z,11.60
2018-09-25T07:19:01.172Z,11.20
2018-09-25T07:21:34.440Z,11.20
2018-09-25T07:24:07.791Z,11.50
2018-09-25T07:26:41.059Z,11.80
2018-09-25T07:29:14.323Z,12.10
2018-09-25T07:31:47.603Z,12.40
2018-09-25T07:34:20.811Z,12.70
2018-09-25T07:36:54.082Z,12.90
2018-09-25T07:39:27.113Z,12.80
2018-09-25T07:42:00.409Z,12.80
2018-09-25T07:44:33.744Z,12.60
2018-09-25T07:47:06.985Z,12.40
2018-09-25T07:49:40.234Z,12.10
2018-09-25T07:52:13.525Z,11.90
2018-09-25T07:54:46.729Z,11.60
2018-09-25T07:57:20.036Z,11.40
2018-09-25T07:59:53.257Z,11.40
2018-09-25T08:02:26.543Z,11.40
2018-09-25T08:04:59.767Z,11.40
2018-09-25T08:07:33.103Z,11.40
2018-09-25T08:10:06.391Z,11.30
2018-09-25T08:12:39.603Z,11.10
2018-09-25T08:15:12.851Z,11.00
2018-09-25T08:17:45.992Z,10.90
2018-09-25T08:20:19.369Z,10.90
2018-09-25T08:22:52.515Z,10.90
2018-09-25T08:25:25.671Z,10.70
2018-09-25T08:27:59.025Z,10.50
2018-09-25T08:30:32.253Z,10.40
2018-09-25T08:33:05.533Z,10.30
2018-09-25T08:35:38.827Z,10.20
2018-09-25T08:38:12.075Z,10.30
2018-09-25T08:40:45.423Z,10.30
2018-09-25T08:43:18.611Z,10.40
2018-09-25T08:45:51.911Z,10.40
2018-09-25T08:48:25.095Z,10.30
2018-09-25T08:50:58.218Z,10.30
2018-09-25T08:53:31.509Z,10.20
2018-09-25T08:56:04.804Z,10.10
2018-09-25T08:58:38.080Z,10.20
2018-09-25T09:01:11.635Z,10.30
2018-09-25T09:03:44.758Z,10.50
2018-09-25T09:06:18.045Z,10.80
2018-09-25T09:08:51.299Z,11.00
2018-09-25T09:11:24.634Z,11.20
2018-09-25T09:13:57.780Z,11.40
2018-09-25T09:16:30.995Z,11.40
2018-09-25T09:19:04.239Z,11.20
2018-09-25T09:21:37.388Z,11.00
2018-09-25T09:24:10.748Z,10.90
2018-09-25T09:26:44.108Z,10.90
2018-09-25T09:29:17.356Z,10.90
2018-09-25T09:31:50.685Z,10.80
2018-09-25T09:34:23.981Z,10.70
2018-09-25T09:36:57.072Z,10.80
2018-09-25T09:39:30.415Z,11.00
2018-09-25T09:42:03.715Z,11.30
2018-09-25T09:44:36.850Z,11.60
2018-09-25T09:47:10.190Z,11.90
2018-09-25T09:49:43.405Z,12.30
2018-09-25T09:52:16.530Z,12.30
2018-09-25T09:54:49.791Z,12.10
2018-09-25T09:57:23.043Z,11.80
2018-09-25T09:59:56.347Z,11.50
2018-09-25T10:02:29.611Z,11.30
2018-09-25T10:05:02.852Z,11.40
2018-09-25T10:07:35.971Z,11.60
2018-09-25T10:10:09.273Z,11.90
2018-09-25T10:12:42.547Z,12.20
2018-09-25T10:15:15.741Z,12.40
2018-09-25T10:17:49.017Z,12.70
2018-09-25T10:20:22.308Z,13.00
2018-09-25T10:22:55.669Z,13.30
2018-09-25T10:25:28.915Z,13.50
2018-09-25T10:28:02.167Z,13.60
2018-09-25T10:30:35.391Z,13.80
2018-09-25T10:33:08.543Z,13.90
2018-09-25T10:35:41.741Z,13.90
2018-09-25T10:38:14.937Z,13.80
2018-09-25T10:40:47.965Z,13.80
2018-09-25T10:43:21.055Z,13.70
2018-09-25T10:45:54.266Z,13.60
2018-09-25T10:48:27.283Z,13.60
2018-09-25T10:51:00.360Z,13.90
2018-09-25T10:53:33.666Z,14.40
2018-09-25T10:56:06.872Z,15.00
2018-09-25T10:58:40.029Z,15.10
2018-09-25T11:01:13.121Z,14.80
2018-09-25T11:03:46.245Z,14.20
2018-09-25T11:06:19.457Z,13.90
2018-09-25T11:08:52.653Z,14.20
2018-09-25T11:11:25.825Z,14.80
2018-09-25T11:13:59.028Z,15.40
2018-09-25T11:16:32.238Z,15.90
2018-09-25T11:19:05.433Z,16.40
2018-09-25T11:21:38.697Z,16.50
2018-09-25T11:24:11.851Z,16.10
2018-09-25T11:26:45.085Z,15.30
2018-09-25T11:29:18.351Z,14.50
2018-09-25T11:31:51.540Z,14.10
2018-09-25T11:34:24.704Z,14.30
2018-09-25T11:36:57.865Z,15.00
2018-09-25T11:39:31.136Z,15.90
2018-09-25T11:42:04.390Z,16.40
2018-09-25T11:44:37.399Z,16.80
2018-09-25T11:47:10.556Z,16.60
2018-09-25T11:49:43.637Z,16.00
2018-09-25T11:52:16.799Z,15.10
2018-09-25T11:54:49.917Z,14.50
2018-09-25T11:57:23.156Z,14.40
2018-09-25T11:59:56.414Z,14.80
2018-09-25T12:02:29.627Z,15.60
2018-09-25T12:05:02.730Z,16.40
2018-09-25T12:07:35.890Z,17.10
2018-09-25T12:10:09.086Z,17.70
2018-09-25T12:12:42.281Z,18.20
2018-09-25T12:15:15.453Z,18.40
2018-09-25T12:17:48.643Z,18.50
2018-09-25T12:20:21.867Z,18.60
2018-09-25T12:22:55.133Z,18.80
2018-09-25T12:25:28.223Z,19.10
2018-09-25T12:28:01.501Z,19.40
2018-09-25T12:30:34.749Z,19.40
2018-09-25T12:33:08.047Z,19.30
2018-09-25T12:35:41.012Z,19.50
2018-09-25T12:38:14.203Z,19.30
2018-09-25T12:40:47.344Z,18.60
2018-09-25T12:43:20.431Z,18.20
2018-09-25T12:45:53.651Z,18.40
2018-09-25T12:48:26.769Z,18.80
2018-09-25T12:50:59.854Z,19.20
2018-09-25T12:53:33.167Z,19.40
2018-09-25T12:56:06.331Z,19.60
2018-09-25T12:58:39.529Z,19.70
2018-09-25T13:01:12.713Z,19.80
2018-09-25T13:03:45.933Z,19.70
2018-09-25T13:06:19.100Z,19.60
2018-09-25T13:08:52.290Z,19.40
2018-09-25T13:11:25.427Z,19.40
2018-09-25T13:13:58.516Z,19.20
2018-09-25T13:16:31.656Z,18.50
2018-09-25T13:19:04.900Z,18.20
2018-09-25T13:21:37.996Z,18.30
2018-09-25T13:24:10.957Z,18.80
2018-09-25T13:26:44.096Z,19.20
2018-09-25T13:29:17.302Z,19.30
2018-09-25T13:31:50.473Z,19.30
2018-09-25T13:34:23.671Z,19.30
2018-09-25T13:36:56.814Z,19.20
2018-09-25T13:39:29.951Z,19.20
2018-09-25T13:42:03.095Z,19.10
2018-09-25T13:44:36.332Z,19.30
2018-09-25T13:47:09.528Z,19.60
2018-09-25T13:49:42.621Z,19.90
2018-09-25T13:52:15.825Z,20.10
2018-09-25T13:54:48.984Z,20.40
2018-09-25T13:57:21.984Z,20.50
2018-09-25T13:59:55.134Z,20.70
2018-09-25T14:02:28.338Z,20.80
2018-09-25T14:05:01.517Z,21.10
2018-09-25T14:07:34.748Z,21.40
2018-09-25T14:10:07.926Z,21.70
2018-09-25T14:12:41.178Z,22.00
2018-09-25T14:15:14.384Z,22.30
2018-09-25T14:17:47.463Z,22.30
2018-09-25T14:20:20.702Z,22.40
2018-09-25T14:22:53.819Z,22.50
2018-09-25T14:25:27.020Z,22.50
2018-09-25T14:28:00.108Z,22.40
2018-09-25T14:30:33.333Z,22.10
2018-09-25T14:33:06.522Z,22.00
2018-09-25T14:35:39.642Z,22.10
2018-09-25T14:38:12.715Z,22.20
2018-09-25T14:40:45.928Z,22.30
2018-09-25T14:43:19.117Z,22.30
2018-09-25T14:45:52.408Z,22.30
2018-09-25T14:48:25.623Z,22.20
2018-09-25T14:50:58.725Z,22.40
2018-09-25T14:53:31.959Z,22.40
2018-09-25T14:56:05.190Z,22.20
2018-09-25T14:58:38.371Z,22.30
2018-09-25T15:01:11.744Z,22.60
2018-09-25T15:03:44.916Z,22.70
2018-09-25T15:06:18.123Z,22.80
2018-09-25T15:08:51.298Z,22.80
2018-09-25T15:11:31.386Z,22.80
2018-09-25T15:14:04.571Z,22.80
2018-09-25T15:16:37.871Z,22.90
2018-09-25T15:19:11.144Z,23.00
2018-09-25T15:21:44.426Z,23.10
2018-09-25T15:24:17.539Z,23.10
2018-09-25T15:26:50.915Z,23.00
2018-09-25T15:29:23.901Z,22.80
2018-09-25T15:31:57.099Z,22.70
2018-09-25T15:34:30.449Z,22.50
2018-09-25T15:37:03.683Z,22.40
2018-09-25T15:39:36.841Z,22.20
2018-09-25T15:42:10.005Z,22.10
2018-09-25T15:44:43.062Z,22.10
2018-09-25T15:47:16.305Z,21.90
2018-09-25T15:49:49.428Z,21.70
2018-09-25T15:52:22.578Z,21.50
2018-09-25T15:54:55.829Z,21.40
2018-09-25T15:57:28.932Z,21.30
2018-09-25T16:00:02.243Z,21.20
2018-09-25T16:02:35.368Z,20.90
2018-09-25T16:05:08.618Z,20.70
2018-09-25T16:07:41.747Z,20.50
2018-09-25T16:10:14.786Z,20.00
2018-09-25T16:12:47.998Z,19.40
2018-09-25T16:15:21.253Z,18.90
2018-09-25T16:17:54.412Z,18.20
2018-09-25T16:20:27.502Z,17.50
2018-09-25T16:23:00.701Z,16.90
2018-09-25T16:25:33.816Z,16.40
2018-09-25T16:28:06.986Z,15.90
2018-09-25T16:30:40.104Z,15.40
2018-09-25T16:33:13.266Z,15.00
2018-09-25T16:35:46.514Z,14.70
2018-09-25T16:38:19.714Z,14.40
2018-09-25T16:40:52.788Z,14.20
2018-09-25T16:43:25.957Z,14.00
2018-09-25T16:45:59.063Z,13.80
2018-09-25T16:48:32.541Z,13.50
2018-09-25T16:51:05.596Z,13.40
2018-09-25T16:53:38.891Z,13.20
2018-09-25T16:56:12.295Z,13.10
2018-09-25T16:58:45.291Z,13.00
2018-09-25T17:01:18.448Z,12.90
2018-09-25T17:03:51.592Z,12.70
2018-09-25T17:06:24.810Z,12.50
2018-09-25T17:08:57.969Z,12.40
2018-09-25T17:11:31.154Z,12.20
2018-09-25T17:14:04.300Z,12.00
2018-09-25T17:16:37.502Z,11.90
2018-09-25T17:19:10.707Z,11.60
2018-09-25T17:21:43.931Z,11.50
2018-09-25T17:24:17.243Z,11.40
2018-09-25T17:26:50.552Z,11.20
2018-09-25T17:29:23.824Z,11.10
2018-09-25T17:31:57.097Z,11.00
2018-09-25T17:34:30.640Z,10.90
2018-09-25T17:37:03.686Z,10.80
2018-09-25T17:39:36.831Z,10.60
2018-09-25T17:42:10.072Z,10.50
2018-09-25T17:44:43.811Z,10.40
2018-09-25T17:47:16.909Z,10.30
2018-09-25T17:49:50.134Z,10.20
2018-09-25T17:52:23.446Z,10.10
2018-09-25T17:54:56.844Z,10.00
2018-09-25T17:57:30.971Z,9.90
2018-09-25T18:00:04.216Z,9.80
2018-09-25T18:02:37.404Z,9.70
2018-09-25T18:05:10.741Z,9.70
2018-09-25T18:07:44.060Z,9.60
2018-09-25T18:10:17.385Z,9.50
2018-09-25T18:12:50.742Z,9.40
2018-09-25T18:15:24.004Z,9.30
2018-09-25T18:17:57.275Z,9.30
2018-09-25T18:20:30.464Z,9.10
2018-09-25T18:23:03.723Z,9.10
2018-09-25T18:25:36.882Z,9.00
2018-09-25T18:28:10.635Z,8.90
2018-09-25T18:30:43.791Z,8.90
2018-09-25T18:33:17.165Z,8.80
2018-09-25T18:35:50.802Z,8.70
2018-09-25T18:38:24.196Z,8.60
2018-09-25T18:41:03.958Z,8.50
2018-09-25T18:43:37.291Z,8.50
2018-09-25T18:46:10.925Z,8.40
2018-09-25T18:48:44.106Z,8.30
2018-09-25T18:51:17.779Z,8.30
2018-09-25T18:53:51.599Z,8.20
2018-09-25T18:56:24.902Z,8.10
2018-09-25T18:58:58.178Z,8.00
2018-09-25T19:01:31.397Z,7.90
2018-09-25T19:04:04.730Z,7.90
2018-09-25T19:06:38.135Z,7.80
2018-09-25T19:09:13.289Z,7.80
2018-09-25T19:11:47.062Z,7.70
2018-09-25T19:14:20.276Z,7.70
2018-09-25T19:16:53.471Z,7.60
2018-09-25T19:19:26.586Z,7.50
2018-09-25T19:21:59.891Z,7.50
2018-09-25T19:24:33.185Z,7.40
2018-09-25T19:27:06.545Z,7.30
2018-09-25T19:29:39.761Z,7.30
2018-09-25T19:32:13.083Z,7.30
2018-09-25T19:34:46.374Z,7.20
2018-09-25T19:37:19.609Z,7.20
2018-09-25T19:39:52.915Z,7.20
2018-09-25T19:42:26.130Z,7.20
2018-09-25T19:44:59.307Z,7.10
2018-09-25T19:47:32.913Z,7.10
2018-09-25T19:50:06.227Z,7.00
2018-09-25T19:52:39.577Z,7.00
2018-09-25T19:55:12.949Z,6.90
2018-09-25T19:57:47.110Z,6.90
2018-09-25T20:00:20.260Z,6.90
2018-09-25T20:02:53.888Z,6.80
2018-09-25T20:05:27.943Z,6.80
2018-09-25T20:08:01.418Z,6.80
2018-09-25T20:10:34.644Z,6.80
2018-09-25T20:13:07.808Z,6.70
2018-09-25T20:15:40.936Z,6.70
2018-09-25T20:18:14.128Z,6.60
2018-09-25T20:20:54.270Z,6.50
2018-09-25T20:23:27.631Z,6.50
2018-09-25T20:26:01.015Z,6.40
2018-09-25T20:28:34.386Z,6.30
2018-09-25T20:31:07.655Z,6.30
2018-09-25T20:33:41.013Z,6.30
2018-09-25T20:36:14.131Z,6.30
2018-09-25T20:38:47.345Z,6.30
2018-09-25T20:41:20.547Z,6.30
2018-09-25T20:43:53.796Z,6.20
2018-09-25T20:46:27.170Z,6.20
2018-09-25T20:49:00.501Z,6.10
2018-09-25T20:51:33.590Z,6.10
2018-09-25T20:54:06.753Z,6.10
2018-09-25T20:56:39.950Z,6.10
2018-09-25T20:59:13.176Z,6.10
2018-09-25T21:01:46.366Z,6.10
2018-09-25T21:04:19.521Z,6.10
2018-09-25T21:06:52.552Z,6.10
2018-09-25T21:09:25.742Z,6.10
2018-09-25T21:11:58.794Z,6.00
2018-09-25T21:14:32.209Z,6.00
2018-09-25T21:17:05.397Z,5.90
2018-09-25T21:19:38.630Z,5.90
2018-09-25T21:22:11.838Z,5.90
2018-09-25T21:24:45.060Z,5.90
2018-09-25T21:27:18.198Z,5.80
2018-09-25T21:29:51.466Z,5.80
2018-09-25T21:32:24.698Z,5.80
2018-09-25T21:34:58.010Z,5.80
2018-09-25T21:37:31.338Z,5.70
2018-09-25T21:40:04.612Z,5.70
2018-09-25T21:42:37.713Z,5.60
2018-09-25T21:45:10.948Z,5.60
2018-09-25T21:47:44.147Z,5.50
2018-09-25T21:50:17.171Z,5.50
2018-09-25T21:52:50.371Z,5.40
2018-09-25T21:55:24.767Z,5.40
2018-09-25T21:57:57.921Z,5.40
2018-09-25T22:00:31.277Z,5.30
2018-09-25T22:03:04.440Z,5.30
2018-09-25T22:05:37.637Z,5.30
2018-09-25T22:08:10.725Z,5.20
2018-09-25T22:10:43.968Z,5.20
2018-09-25T22:13:17.157Z,5.20
2018-09-25T22:15:50.342Z,5.10
2018-09-25T22:18:23.581Z,5.10
2018-09-25T22:20:56.697Z,5.00
2018-09-25T22:23:29.853Z,5.00
2018-09-25T22:26:03.075Z,5.00
2018-09-25T22:28:36.259Z,4.90
2018-09-25T22:31:09.439Z,4.90
2018-09-25T22:33:42.493Z,4.90
2018-09-25T22:36:15.695Z,4.90
2018-09-25T22:38:48.917Z,4.90
2018-09-25T22:41:22.057Z,4.80
2018-09-25T22:43:55.205Z,4.80
2018-09-25T22:46:28.427Z,4.80
2018-09-25T22:49:01.617Z,4.80
2018-09-25T22:51:34.950Z,4.70
2018-09-25T22:54:08.094Z,4.70
2018-09-25T22:56:41.367Z,4.70
2018-09-25T22:59:14.552Z,4.70
2018-09-25T23:01:47.734Z,4.70
2018-09-25T23:04:20.947Z,4.70
2018-09-25T23:06:54.258Z,4.60
2018-09-25T23:09:27.470Z,4.60
2018-09-25T23:12:00.740Z,4.50
2018-09-25T23:14:33.852Z,4.50
2018-09-25T23:17:06.998Z,4.50
2018-09-25T23:19:40.172Z,4.40
2018-09-25T23:22:13.395Z,4.40
2018-09-25T23:24:46.610Z,4.50
2018-09-25T23:27:19.850Z,4.40
2018-09-25T23:29:53.048Z,4.40
2018-09-25T23:32:26.306Z,4.50
2018-09-25T23:34:59.438Z,4.50
2018-09-25T23:37:32.610Z,4.50
2018-09-25T23:40:04.845Z,4.40
2018-09-25T23:42:39.624Z,4.40
2018-09-25T23:47:16.817Z,4.30
2018-09-25T23:49:50.014Z,4.30
2018-09-25T23:52:22.469Z,4.30
2018-09-25T23:55:00.770Z,4.30
2018-09-25T23:57:34.916Z,4.30
